Time;durP1;ratioP1;P1;durP2;ratioP2;P2;SDS_P1;SDS_P2;PMS_P1;PMS_P2;Temp;Humidity;BMP_temperature;BMP_pressure;BME280_temperature;BME280_humidity;BME280_pressure;Samples;Min_cycle;Max_cycle;Signal;HPM_P1;HPM_P2
2023/01/01 00:01:44;;;;;;;14.57;2.05;;;11.40;99.90;;;;;;5019603;28;20025;-70
2023/01/01 00:04:12;;;;;;;15.77;1.90;;;11.40;99.90;;;;;;5011736;28;20867;-71
2023/01/01 00:06:38;;;;;;;17.10;1.80;;;11.40;99.90;;;;;;5007314;28;20034;-71
2023/01/01 00:11:48;;;;;;;17.23;1.95;;;11.40;99.90;;;;;;5005213;28;20444;-72
2023/01/01 00:14:14;;;;;;;11.80;2.08;;;11.40;99.90;;;;;;5013646;28;20033;-71
2023/01/01 00:16:39;;;;;;;21.67;2.58;;;11.40;99.90;;;;;;5009304;28;20539;-71
2023/01/01 00:19:05;;;;;;;19.38;2.20;;;11.30;99.90;;;;;;5015762;28;20037;-71
2023/01/01 00:21:31;;;;;;;24.13;3.00;;;11.30;99.90;;;;;;5010064;28;20138;-71
2023/01/01 00:23:56;;;;;;;23.23;3.47;;;11.30;99.90;;;;;;5010358;28;20025;-71
2023/01/01 00:26:22;;;;;;;21.70;3.70;;;11.30;99.90;;;;;;5012852;28;20037;-70
2023/01/01 00:28:48;;;;;;;10.80;2.58;;;11.30;99.90;;;;;;4999498;28;20061;-71
2023/01/01 00:31:19;;;;;;;21.45;3.47;;;11.30;99.90;;;;;;5013520;28;20037;-71
2023/01/01 00:33:45;;;;;;;;;;;11.30;99.90;;;;;;5018048;28;20084;-71
2023/01/01 00:36:13;;;;;;;20.67;3.67;;;11.20;99.90;;;;;;5016491;28;20392;-71
2023/01/01 00:38:40;;;;;;;25.10;4.03;;;11.30;99.90;;;;;;5014184;28;20205;-71
2023/01/01 00:41:06;;;;;;;17.20;2.72;;;11.20;99.90;;;;;;4994087;28;20045;-70
2023/01/01 00:43:32;;;;;;;24.92;4.35;;;11.20;99.90;;;;;;4995577;28;20038;-71
2023/01/01 00:45:57;;;;;;;24.27;3.22;;;11.20;99.90;;;;;;4995843;28;20034;-71
2023/01/01 00:48:23;;;;;;;28.42;3.67;;;11.20;99.90;;;;;;4994750;28;20125;-70
2023/01/01 00:50:50;;;;;;;26.75;3.40;;;11.10;99.90;;;;;;5000458;28;20022;-71
2023/01/01 00:53:17;;;;;;;25.25;3.00;;;11.00;99.90;;;;;;4995771;28;20057;-71
2023/01/01 00:55:45;;;;;;;29.92;3.75;;;11.00;99.90;;;;;;5014893;28;20744;-71
2023/01/01 00:58:11;;;;;;;19.70;2.80;;;11.00;99.90;;;;;;5014829;28;20033;-71
2023/01/01 01:00:37;;;;;;;29.55;2.88;;;11.00;99.90;;;;;;5006268;28;20116;-70
2023/01/01 01:03:03;;;;;;;27.55;2.85;;;10.90;99.90;;;;;;5001871;28;20456;-71
2023/01/01 01:05:30;;;;;;;25.23;2.92;;;11.00;99.90;;;;;;4996225;28;20034;-70
2023/01/01 01:07:56;;;;;;;29.08;4.38;;;11.00;99.90;;;;;;5005373;28;20111;-71
2023/01/01 01:10:22;;;;;;;21.17;3.40;;;11.00;99.90;;;;;;5020765;28;20116;-70
2023/01/01 01:12:48;;;;;;;31.45;3.40;;;11.00;99.90;;;;;;5011921;28;20044;-70
2023/01/01 01:15:14;;;;;;;32.83;3.00;;;11.00;99.90;;;;;;5002128;28;20041;-71
2023/01/01 01:17:40;;;;;;;19.13;2.60;;;11.00;99.90;;;;;;5007069;28;20033;-71
2023/01/01 01:20:07;;;;;;;31.83;3.33;;;11.00;99.90;;;;;;4993042;28;20535;-71
2023/01/01 01:22:36;;;;;;;27.80;3.13;;;11.00;99.90;;;;;;5014484;28;20095;-71
2023/01/01 01:25:01;;;;;;;23.88;3.40;;;10.90;99.90;;;;;;4983440;28;20025;-71
2023/01/01 01:27:27;;;;;;;25.58;3.40;;;10.90;99.90;;;;;;5014029;28;20044;-70
2023/01/01 01:29:53;;;;;;;19.80;2.67;;;10.90;99.90;;;;;;4999783;28;20038;-70
2023/01/01 01:32:19;;;;;;;33.28;3.58;;;10.90;99.90;;;;;;4994833;28;20037;-70
2023/01/01 01:34:46;;;;;;;29.13;3.15;;;10.80;99.90;;;;;;5013561;28;20045;-70
2023/01/01 01:37:12;;;;;;;25.45;2.28;;;10.90;99.90;;;;;;5005694;28;20038;-70
2023/01/01 01:39:38;;;;;;;19.13;2.25;;;10.90;99.90;;;;;;5001988;28;20088;-70
2023/01/01 01:42:04;;;;;;;20.77;2.50;;;10.80;99.90;;;;;;4999172;28;20123;-70
2023/01/01 01:44:45;;;;;;;23.00;2.70;;;10.80;99.90;;;;;;5010222;28;20562;-70
2023/01/01 01:47:33;;;;;;;26.25;2.85;;;10.80;99.90;;;;;;5004340;28;20490;-69
2023/01/01 01:50:25;;;;;;;24.00;2.75;;;10.80;99.90;;;;;;4996967;28;20834;-69
2023/01/01 01:53:00;;;;;;;20.42;2.55;;;10.70;99.90;;;;;;5014247;28;20373;-70
2023/01/01 01:55:31;;;;;;;25.23;2.95;;;10.60;99.90;;;;;;4982817;28;20037;-70
2023/01/01 01:57:57;;;;;;;17.60;2.53;;;10.60;99.90;;;;;;4999495;28;20121;-70
2023/01/01 02:00:22;;;;;;;25.88;2.63;;;10.50;99.90;;;;;;5007206;28;20322;-70
2023/01/01 02:02:54;;;;;;;25.90;2.80;;;10.50;99.90;;;;;;5019966;28;20107;-69
2023/01/01 02:05:20;;;;;;;28.15;3.25;;;10.70;99.90;;;;;;5013864;28;20172;-70
2023/01/01 02:07:46;;;;;;;31.55;2.83;;;10.60;99.90;;;;;;4999904;28;20041;-70
2023/01/01 02:10:12;;;;;;;27.27;2.80;;;10.60;99.90;;;;;;5004466;28;20034;-70
2023/01/01 02:12:37;;;;;;;30.67;3.15;;;10.60;99.90;;;;;;5018948;28;20087;-69
2023/01/01 02:15:04;;;;;;;37.45;3.75;;;10.50;99.90;;;;;;5013507;28;20033;-70
2023/01/01 02:17:34;;;;;;;38.55;3.55;;;10.50;99.90;;;;;;4999349;28;20117;-69
2023/01/01 02:20:00;;;;;;;23.60;2.50;;;10.60;99.90;;;;;;4984343;28;20045;-70
2023/01/01 02:23:00;;;;;;;19.70;2.92;;;10.60;99.90;;;;;;5017882;28;20418;-69
2023/01/01 02:25:37;;;;;;;31.15;3.72;;;10.70;99.90;;;;;;5001467;28;20480;-70
2023/01/01 02:28:14;;;;;;;26.25;2.65;;;10.70;99.90;;;;;;4997318;28;20548;-70
2023/01/01 02:30:43;;;;;;;29.48;3.35;;;10.70;99.90;;;;;;4998156;28;20481;-69
2023/01/01 02:33:15;;;;;;;24.15;3.05;;;10.80;99.90;;;;;;4978775;28;20034;-70
2023/01/01 02:35:49;;;;;;;;;;;10.80;99.90;;;;;;4976514;28;20566;-71
2023/01/01 02:38:31;;;;;;;31.48;4.05;;;10.80;99.90;;;;;;4999600;28;19959;-69
2023/01/01 02:41:05;;;;;;;31.13;3.88;;;10.90;99.90;;;;;;5015912;28;20068;-70
2023/01/01 02:43:31;;;;;;;25.63;3.50;;;10.90;99.90;;;;;;5016230;28;20025;-70
2023/01/01 02:45:57;;;;;;;25.33;2.80;;;11.00;99.90;;;;;;4996638;28;20417;-70
2023/01/01 02:48:42;;;;;;;25.45;3.30;;;10.90;99.90;;;;;;4994854;28;20062;-70
2023/01/01 02:51:32;;;;;;;36.80;4.38;;;10.90;99.90;;;;;;4992754;28;20061;-70
2023/01/01 02:54:17;;;;;;;34.10;3.45;;;10.90;99.90;;;;;;5012577;28;20434;-69
2023/01/01 02:57:18;;;;;;;38.08;4.53;;;10.90;99.90;;;;;;5014808;28;20026;-70
2023/01/01 03:03:28;;;;;;;41.00;4.03;;;10.90;99.90;;;;;;4954458;28;20534;-69
2023/01/01 03:06:35;;;;;;;26.80;3.58;;;10.90;99.90;;;;;;4936039;29;20060;-70
2023/01/01 03:09:00;;;;;;;38.75;4.80;;;10.80;99.90;;;;;;4995690;28;20103;-69
2023/01/01 03:11:38;;;;;;;30.73;4.93;;;10.90;99.90;;;;;;5015926;28;20056;-69
2023/01/01 03:14:29;;;;;;;36.05;3.65;;;10.90;99.90;;;;;;5000296;28;20030;-69
2023/01/01 03:17:07;;;;;;;32.10;4.25;;;10.90;99.90;;;;;;4981465;28;20300;-70
2023/01/01 03:19:37;;;;;;;31.52;3.33;;;10.80;99.90;;;;;;5001944;28;20524;-69
2023/01/01 03:22:14;;;;;;;32.55;3.78;;;10.80;99.90;;;;;;4990078;28;20527;-71
2023/01/01 03:24:42;;;;;;;42.10;3.85;;;10.80;99.90;;;;;;4992206;28;20209;-70
2023/01/01 03:27:21;;;;;;;34.45;5.53;;;10.90;99.90;;;;;;4993048;28;20650;-70
2023/01/01 03:29:50;;;;;;;31.63;3.25;;;10.90;99.90;;;;;;5010764;28;20185;-70
2023/01/01 03:32:58;;;;;;;28.63;3.42;;;10.90;99.90;;;;;;5014822;28;20331;-69
2023/01/01 03:35:12;;;;;;;29.58;3.25;;;10.80;99.90;;;;;;5008851;28;20465;-70
2023/01/01 03:37:40;;;;;;;32.85;4.05;;;10.80;99.90;;;;;;5001062;28;20439;-70
2023/01/01 03:40:07;;;;;;;31.35;3.45;;;10.80;99.90;;;;;;5016161;28;20085;-70
2023/01/01 03:42:40;;;;;;;32.13;3.40;;;10.80;99.90;;;;;;4999234;28;20563;-70
2023/01/01 03:45:15;;;;;;;28.20;3.53;;;10.80;99.90;;;;;;4999063;28;20030;-70
2023/01/01 03:47:41;;;;;;;32.80;4.20;;;10.80;99.90;;;;;;5008694;28;20033;-69
2023/01/01 03:50:08;;;;;;;25.38;2.70;;;10.80;99.90;;;;;;5000694;28;20107;-71
2023/01/01 03:52:42;;;;;;;37.78;3.35;;;10.80;99.90;;;;;;4989525;28;20126;-70
2023/01/01 03:55:42;;;;;;;29.13;3.47;;;10.80;99.90;;;;;;5016973;28;20040;-70
2023/01/01 03:58:34;;;;;;;34.55;4.10;;;10.90;99.90;;;;;;5018186;28;20037;-70
2023/01/01 04:01:29;;;;;;;19.60;2.85;;;11.00;99.90;;;;;;5009873;28;20063;-70
2023/01/01 04:03:56;;;;;;;31.92;3.70;;;11.10;99.90;;;;;;4979150;28;20042;-70
2023/01/01 04:06:22;;;;;;;25.50;3.47;;;11.10;99.90;;;;;;4999077;28;20033;-70
2023/01/01 04:08:51;;;;;;;28.77;3.38;;;11.10;99.90;;;;;;4998944;28;20876;-70
2023/01/01 04:14:06;;;;;;;23.08;3.05;;;11.20;99.90;;;;;;4997925;28;20037;-69
2023/01/01 04:16:32;;;;;;;39.83;4.65;;;11.30;99.90;;;;;;5009444;28;20427;-70
2023/01/01 04:18:57;;;;;;;30.77;3.08;;;11.30;99.90;;;;;;5015391;28;20501;-70
2023/01/01 04:21:23;;;;;;;29.05;3.20;;;11.30;99.90;;;;;;5011519;28;21157;-69
2023/01/01 04:23:48;;;;;;;30.58;3.70;;;11.20;99.90;;;;;;5014807;28;20507;-70
2023/01/01 04:26:15;;;;;;;19.70;2.88;;;11.30;99.90;;;;;;4999642;28;20551;-70
2023/01/01 04:28:41;;;;;;;25.88;3.42;;;11.30;99.90;;;;;;5004099;28;20157;-70
2023/01/01 04:31:08;;;;;;;23.90;3.00;;;11.30;99.90;;;;;;4998668;28;20026;-70
2023/01/01 04:33:34;;;;;;;18.55;2.78;;;11.30;99.90;;;;;;5013529;28;20038;-70
2023/01/01 04:36:05;;;;;;;22.92;3.42;;;11.30;99.90;;;;;;5016859;28;20037;-70
2023/01/01 04:38:35;;;;;;;46.22;7.40;;;11.20;99.90;;;;;;5001164;28;20045;-70
2023/01/01 04:41:02;;;;;;;25.48;3.22;;;11.10;99.90;;;;;;5016927;28;20052;-70
2023/01/01 04:43:28;;;;;;;24.63;2.97;;;11.10;99.90;;;;;;5008354;28;20030;-70
2023/01/01 04:46:02;;;;;;;27.35;3.15;;;11.10;99.90;;;;;;5016826;28;20151;-70
2023/01/01 04:48:29;;;;;;;21.23;3.20;;;11.10;99.90;;;;;;5018166;28;20531;-70
2023/01/01 04:51:00;;;;;;;24.85;3.30;;;11.00;99.90;;;;;;5007586;28;20112;-70
2023/01/01 04:53:29;;;;;;;33.53;3.70;;;11.10;99.90;;;;;;5013471;28;20116;-70
2023/01/01 04:55:55;;;;;;;24.50;2.63;;;11.20;99.90;;;;;;5016582;28;20214;-70
2023/01/01 04:58:20;;;;;;;21.75;2.97;;;11.20;99.90;;;;;;5013056;28;20581;-70
2023/01/01 05:00:50;;;;;;;23.52;2.63;;;11.20;99.90;;;;;;4998005;28;20386;-71
2023/01/01 05:03:16;;;;;;;21.55;2.40;;;11.10;99.90;;;;;;5007598;28;20091;-70
2023/01/01 05:05:42;;;;;;;21.80;2.85;;;11.00;99.90;;;;;;5010724;28;20483;-70
2023/01/01 05:08:08;;;;;;;20.45;2.17;;;11.00;99.90;;;;;;5007427;28;20080;-71
2023/01/01 05:10:33;;;;;;;15.05;2.97;;;11.10;99.90;;;;;;4994685;28;20301;-70
2023/01/01 05:12:59;;;;;;;21.50;2.55;;;11.00;99.90;;;;;;5004685;28;20136;-70
2023/01/01 05:15:25;;;;;;;22.42;2.95;;;11.00;99.90;;;;;;4983060;28;20116;-70
2023/01/01 05:17:50;;;;;;;25.20;2.28;;;10.90;99.90;;;;;;4986041;28;20030;-70
2023/01/01 05:20:16;;;;;;;24.15;3.17;;;10.80;99.90;;;;;;4987819;28;20525;-70
2023/01/01 05:22:44;;;;;;;21.20;2.45;;;10.90;99.90;;;;;;4990466;28;20452;-70
2023/01/01 05:25:09;;;;;;;24.42;2.75;;;10.90;99.90;;;;;;5014724;28;20036;-70
2023/01/01 05:27:35;;;;;;;19.48;2.28;;;10.90;99.90;;;;;;4997162;28;20034;-70
2023/01/01 05:30:00;;;;;;;20.30;3.40;;;10.90;99.90;;;;;;4997996;28;20512;-70
2023/01/01 05:32:27;;;;;;;24.95;3.58;;;11.00;99.90;;;;;;5013570;28;20050;-70
2023/01/01 05:34:53;;;;;;;23.77;2.53;;;10.90;99.90;;;;;;5000511;28;20042;-69
2023/01/01 05:37:18;;;;;;;30.63;3.13;;;10.90;99.90;;;;;;4989642;28;20354;-71
2023/01/01 05:39:44;;;;;;;24.48;2.63;;;10.90;99.90;;;;;;4998940;28;20144;-69
2023/01/01 05:42:10;;;;;;;27.20;3.05;;;10.90;99.90;;;;;;5012811;28;20512;-70
2023/01/01 05:44:35;;;;;;;23.50;2.55;;;10.90;99.90;;;;;;5016153;28;20033;-70
2023/01/01 05:47:01;;;;;;;23.13;3.50;;;10.90;99.90;;;;;;5016701;28;20061;-70
2023/01/01 05:49:27;;;;;;;17.48;2.72;;;10.90;99.90;;;;;;5009250;28;20157;-70
2023/01/01 05:51:53;;;;;;;17.45;2.42;;;11.00;99.90;;;;;;4994388;28;20045;-69
2023/01/01 05:54:18;;;;;;;26.30;2.50;;;11.00;99.90;;;;;;5000838;28;20030;-71
2023/01/01 05:56:44;;;;;;;22.10;3.17;;;11.00;99.90;;;;;;5012725;28;20124;-69
2023/01/01 05:59:10;;;;;;;24.38;2.58;;;11.00;99.90;;;;;;5015709;28;20033;-70
2023/01/01 06:01:35;;;;;;;21.75;2.45;;;11.00;99.90;;;;;;5008402;28;20041;-70
2023/01/01 06:04:01;;;;;;;23.50;2.58;;;10.90;99.90;;;;;;4993198;28;20030;-70
2023/01/01 06:06:30;;;;;;;23.98;3.28;;;11.00;99.90;;;;;;4998713;28;20568;-71
2023/01/01 06:09:00;;;;;;;22.48;2.28;;;11.00;99.90;;;;;;4996960;28;20381;-71
2023/01/01 06:11:27;;;;;;;25.30;2.70;;;11.10;99.90;;;;;;5009004;28;20460;-71
2023/01/01 06:13:54;;;;;;;26.20;3.08;;;11.20;99.90;;;;;;5015080;28;20590;-71
2023/01/01 06:16:20;;;;;;;18.30;2.22;;;11.10;99.90;;;;;;4985069;28;20441;-71
2023/01/01 06:18:46;;;;;;;15.80;2.10;;;11.20;99.90;;;;;;4978105;28;20061;-71
2023/01/01 06:21:19;;;;;;;18.23;2.20;;;11.20;99.90;;;;;;5007637;28;20505;-71
2023/01/01 06:23:45;;;;;;;16.30;2.45;;;11.40;99.90;;;;;;5017968;28;20034;-71
2023/01/01 06:26:15;;;;;;;19.10;2.75;;;11.50;99.90;;;;;;5006689;28;20136;-71
2023/01/01 06:28:43;;;;;;;19.70;2.50;;;11.50;99.90;;;;;;4981539;28;20031;-71
2023/01/01 06:31:11;;;;;;;18.35;2.75;;;11.50;99.90;;;;;;4977516;28;20149;-71
2023/01/01 06:33:38;;;;;;;23.48;2.67;;;11.50;99.90;;;;;;5008639;28;20542;-71
2023/01/01 06:36:06;;;;;;;21.83;3.05;;;11.50;99.90;;;;;;5007819;28;20129;-71
2023/01/01 06:38:33;;;;;;;21.80;2.70;;;11.40;99.90;;;;;;5017912;28;20056;-71
2023/01/01 06:41:01;;;;;;;20.77;2.20;;;11.40;99.90;;;;;;5009381;28;20033;-71
2023/01/01 06:43:29;;;;;;;19.48;2.20;;;11.50;99.90;;;;;;4999669;28;20101;-71
2023/01/01 06:46:04;;;;;;;22.88;2.67;;;11.40;99.90;;;;;;4997626;28;20116;-71
2023/01/01 06:48:34;;;;;;;18.27;2.40;;;11.40;99.90;;;;;;4997393;28;20045;-70
2023/01/01 06:51:27;;;;;;;20.88;2.50;;;11.40;99.90;;;;;;5000241;28;20047;-70
2023/01/01 06:53:53;;;;;;;26.67;2.88;;;11.40;99.90;;;;;;5010857;28;20564;-71
2023/01/01 06:56:19;;;;;;;21.42;2.88;;;11.40;99.90;;;;;;5009094;28;20037;-71
2023/01/01 06:58:45;;;;;;;21.65;2.85;;;11.40;99.90;;;;;;5004595;28;20049;-71
2023/01/01 07:01:20;;;;;;;22.38;2.90;;;11.40;99.90;;;;;;4997876;28;20339;-71
2023/01/01 07:03:53;;;;;;;23.80;2.88;;;11.40;99.90;;;;;;4994709;28;20045;-71
2023/01/01 07:06:19;;;;;;;29.67;3.03;;;11.30;99.90;;;;;;4988122;28;20155;-71
2023/01/01 07:08:45;;;;;;;25.92;3.70;;;11.30;99.90;;;;;;4997763;28;20108;-71
2023/01/01 07:11:10;;;;;;;31.40;3.35;;;11.30;99.90;;;;;;5015851;28;20108;-71
2023/01/01 07:13:36;;;;;;;29.52;2.88;;;11.30;99.90;;;;;;5015458;28;20116;-71
2023/01/01 07:16:02;;;;;;;22.70;3.33;;;11.20;99.90;;;;;;5008713;28;20073;-71
2023/01/01 07:18:27;;;;;;;24.20;2.63;;;11.10;99.90;;;;;;4996685;28;20112;-71
2023/01/01 07:20:58;;;;;;;27.77;3.53;;;11.10;99.90;;;;;;4985445;28;20041;-70
2023/01/01 07:23:25;;;;;;;25.30;2.83;;;11.10;99.90;;;;;;5016212;28;20529;-70
2023/01/01 07:25:52;;;;;;;31.83;3.78;;;11.00;99.90;;;;;;5010324;28;20167;-71
2023/01/01 07:28:18;;;;;;;31.75;3.83;;;11.00;99.90;;;;;;4998642;28;20458;-71
2023/01/01 07:30:44;;;;;;;28.13;3.25;;;11.00;99.90;;;;;;5006050;28;20634;-70
2023/01/01 07:33:11;;;;;;;29.35;3.67;;;11.00;99.90;;;;;;5001485;28;20157;-70
2023/01/01 07:35:37;;;;;;;24.33;3.00;;;11.00;99.90;;;;;;5000635;28;20048;-70
2023/01/01 07:38:03;;;;;;;33.92;3.42;;;10.90;99.90;;;;;;5004084;28;20934;-70
2023/01/01 07:40:28;;;;;;;26.85;3.63;;;10.90;99.90;;;;;;5004017;28;20509;-70
2023/01/01 07:42:54;;;;;;;25.33;3.22;;;10.90;99.90;;;;;;4988311;28;20034;-70
2023/01/01 07:45:19;;;;;;;32.38;4.50;;;10.80;99.90;;;;;;4992931;28;20481;-71
2023/01/01 07:47:51;;;;;;;31.30;3.60;;;10.80;99.90;;;;;;4997328;28;20029;-70
2023/01/01 07:50:18;;;;;;;20.13;2.70;;;10.70;99.90;;;;;;4989192;28;20029;-71
2023/01/01 07:52:44;;;;;;;30.52;3.50;;;10.60;99.90;;;;;;4985243;28;20129;-71
2023/01/01 07:55:15;;;;;;;25.27;3.75;;;10.50;99.90;;;;;;4986196;28;20029;-70
2023/01/01 07:57:41;;;;;;;32.65;3.92;;;10.50;99.90;;;;;;4999276;28;20202;-70
2023/01/01 08:00:09;;;;;;;29.55;4.25;;;10.60;99.90;;;;;;4985004;28;20092;-71
2023/01/01 08:02:34;;;;;;;32.65;3.83;;;10.50;99.90;;;;;;4989058;28;20038;-70
2023/01/01 08:05:00;;;;;;;34.58;3.70;;;10.40;99.90;;;;;;4992898;28;20084;-71
2023/01/01 08:07:26;;;;;;;37.17;3.47;;;10.40;99.90;;;;;;4998478;28;20087;-71
2023/01/01 08:09:51;;;;;;;35.92;4.05;;;10.30;99.90;;;;;;4996047;28;20081;-70
2023/01/01 08:12:17;;;;;;;29.48;3.97;;;10.30;99.90;;;;;;4995271;28;20030;-70
2023/01/01 08:14:43;;;;;;;28.20;4.55;;;10.30;99.90;;;;;;4995110;28;20065;-71
2023/01/01 08:17:08;;;;;;;31.00;4.47;;;10.10;99.90;;;;;;4986123;28;20474;-70
2023/01/01 08:19:34;;;;;;;29.10;4.22;;;10.20;99.90;;;;;;4978541;28;20498;-71
2023/01/01 08:22:00;;;;;;;28.10;3.30;;;10.20;99.90;;;;;;5004107;28;20021;-70
2023/01/01 08:24:25;;;;;;;34.38;4.53;;;10.20;99.90;;;;;;4997859;28;20037;-71
2023/01/01 08:26:51;;;;;;;30.27;4.28;;;10.30;99.90;;;;;;5006986;28;20051;-70
2023/01/01 08:29:17;;;;;;;42.95;5.55;;;10.30;99.90;;;;;;4990697;28;20693;-71
2023/01/01 08:31:42;;;;;;;28.65;3.55;;;10.30;99.90;;;;;;4988636;28;20117;-70
2023/01/01 08:34:08;;;;;;;40.85;4.45;;;10.40;99.90;;;;;;4998021;28;20046;-71
2023/01/01 08:36:34;;;;;;;33.45;3.90;;;10.50;99.90;;;;;;4999919;28;20045;-70
2023/01/01 08:38:59;;;;;;;35.90;5.95;;;10.60;99.90;;;;;;4998018;28;20022;-71
2023/01/01 08:41:25;;;;;;;35.70;4.22;;;10.60;99.90;;;;;;4998061;28;20026;-71
2023/01/01 08:43:51;;;;;;;31.17;4.00;;;10.70;99.90;;;;;;5003809;28;20366;-70
2023/01/01 08:46:16;;;;;;;30.42;3.65;;;10.70;99.90;;;;;;5000167;28;20030;-71
2023/01/01 08:48:42;;;;;;;35.33;3.75;;;10.70;99.90;;;;;;5002442;28;20331;-70
2023/01/01 08:51:09;;;;;;;37.33;4.95;;;10.80;99.90;;;;;;4997520;28;20123;-70
2023/01/01 08:53:34;;;;;;;37.72;4.35;;;10.80;99.90;;;;;;5002699;28;20422;-70
2023/01/01 08:56:08;;;;;;;33.65;4.55;;;10.80;99.90;;;;;;5008596;28;20063;-71
2023/01/01 08:58:39;;;;;;;33.53;3.90;;;10.90;99.90;;;;;;5004423;28;20048;-70
2023/01/01 09:01:06;;;;;;;33.47;3.97;;;11.00;99.90;;;;;;5014131;28;20041;-70
2023/01/01 09:03:32;;;;;;;32.85;3.90;;;11.00;99.90;;;;;;4993114;28;20061;-70
2023/01/01 09:05:58;;;;;;;24.65;3.03;;;11.00;99.90;;;;;;4994138;28;20041;-70
2023/01/01 09:08:24;;;;;;;38.63;4.35;;;11.00;99.90;;;;;;4995024;28;20471;-70
2023/01/01 09:10:50;;;;;;;36.33;4.80;;;11.00;99.90;;;;;;4998932;28;20038;-70
2023/01/01 09:13:19;;;;;;;40.70;5.45;;;11.10;99.90;;;;;;5003569;28;20080;-71
2023/01/01 09:15:45;;;;;;;31.10;3.30;;;11.20;99.90;;;;;;5012966;28;20117;-70
2023/01/01 09:18:12;;;;;;;35.08;4.20;;;11.20;99.90;;;;;;4998341;28;20564;-71
2023/01/01 09:20:38;;;;;;;32.35;4.53;;;11.40;99.90;;;;;;4998481;28;20034;-71
2023/01/01 09:23:05;;;;;;;34.85;4.00;;;11.50;99.90;;;;;;4994831;28;20030;-70
2023/01/01 09:25:32;;;;;;;39.50;3.45;;;11.60;99.90;;;;;;5003828;28;20037;-71
2023/01/01 09:27:59;;;;;;;28.50;3.97;;;11.80;99.90;;;;;;5016462;28;20029;-71
2023/01/01 09:30:25;;;;;;;25.70;3.70;;;11.90;99.90;;;;;;4993568;28;20413;-71
2023/01/01 09:32:51;;;;;;;32.55;3.75;;;12.00;99.90;;;;;;4998070;28;20449;-71
2023/01/01 09:35:17;;;;;;;24.83;3.30;;;12.00;99.90;;;;;;4997097;28;20103;-70
2023/01/01 09:37:42;;;;;;;26.40;3.67;;;12.00;99.90;;;;;;4993432;28;20057;-71
2023/01/01 09:40:26;;;;;;;24.83;3.65;;;12.00;99.90;;;;;;4998343;28;20038;-71
2023/01/01 09:43:11;;;;;;;23.75;3.08;;;12.00;99.90;;;;;;4979994;28;20038;-70
2023/01/01 09:45:53;;;;;;;29.73;3.47;;;11.90;99.90;;;;;;4999750;28;20136;-70
2023/01/01 09:48:20;;;;;;;26.17;3.75;;;11.80;99.90;;;;;;5003205;28;20446;-71
2023/01/01 09:50:46;;;;;;;29.38;4.40;;;11.90;99.90;;;;;;5000011;28;20032;-71
2023/01/01 09:53:11;;;;;;;23.40;3.45;;;11.90;99.90;;;;;;5009159;28;20151;-70
2023/01/01 09:55:55;;;;;;;33.35;3.63;;;11.90;99.90;;;;;;5009515;28;20884;-70
2023/01/01 09:58:28;;;;;;;34.20;3.80;;;12.00;99.90;;;;;;5000544;28;20097;-71
2023/01/01 10:00:59;;;;;;;34.40;3.42;;;12.10;99.90;;;;;;4993158;28;20481;-71
2023/01/01 10:03:50;;;;;;;41.45;5.68;;;12.10;99.90;;;;;;5000848;28;20101;-71
2023/01/01 10:06:27;;;;;;;31.23;3.95;;;12.10;99.90;;;;;;4998903;28;20386;-71
2023/01/01 10:09:19;;;;;;;35.63;3.78;;;12.20;99.90;;;;;;4986096;28;20034;-70
2023/01/01 10:11:55;;;;;;;39.00;3.53;;;12.20;99.90;;;;;;4991181;28;20617;-70
2023/01/01 10:14:37;;;;;;;31.50;3.58;;;12.30;99.90;;;;;;4990225;28;20065;-71
2023/01/01 10:17:18;;;;;;;28.17;3.47;;;12.30;99.90;;;;;;4989008;28;20026;-71
2023/01/01 10:19:52;;;;;;;21.20;2.65;;;12.40;99.90;;;;;;4998597;28;20033;-70
2023/01/01 10:22:37;;;;;;;27.80;3.20;;;12.40;99.90;;;;;;4989465;28;20038;-70
2023/01/01 10:25:19;;;;;;;22.63;4.00;;;12.40;99.90;;;;;;4993813;28;20485;-71
2023/01/01 10:27:55;;;;;;;;;;;12.40;99.90;;;;;;5004488;28;20583;-71
2023/01/01 10:30:22;;;;;;;34.90;3.12;;;12.40;99.90;;;;;;4657534;28;10000699;-71
2023/01/01 10:32:53;;;;;;;25.65;2.95;;;12.30;99.90;;;;;;5006840;28;20033;-71
2023/01/01 10:35:29;;;;;;;22.02;3.22;;;12.20;99.90;;;;;;5009777;28;20073;-71
2023/01/01 10:37:59;;;;;;;28.30;3.58;;;12.10;99.90;;;;;;5003539;28;20033;-71
2023/01/01 10:40:27;;;;;;;33.60;3.55;;;12.10;99.90;;;;;;5007907;28;20079;-71
2023/01/01 10:42:55;;;;;;;27.10;3.20;;;12.10;99.90;;;;;;4992426;28;20548;-71
2023/01/01 10:45:28;;;;;;;23.85;2.97;;;12.20;99.90;;;;;;4993798;28;20076;-70
2023/01/01 10:48:17;;;;;;;28.95;4.32;;;12.20;99.90;;;;;;4992607;28;20099;-70
2023/01/01 10:50:59;;;;;;;23.88;2.88;;;12.30;99.90;;;;;;4989700;28;20034;-71
2023/01/01 10:53:34;;;;;;;27.08;3.33;;;12.30;99.90;;;;;;4993568;28;20048;-71
2023/01/01 10:56:06;;;;;;;21.77;2.78;;;12.30;99.90;;;;;;4987694;28;20082;-70
2023/01/01 10:58:39;;;;;;;24.33;2.47;;;12.30;99.90;;;;;;5000404;28;20051;-71
2023/01/01 11:01:10;;;;;;;20.02;2.25;;;12.30;99.90;;;;;;4999617;28;20468;-71
2023/01/01 11:03:36;;;;;;;28.83;3.53;;;12.30;99.90;;;;;;4999061;28;20393;-71
2023/01/01 11:06:25;;;;;;;26.52;2.97;;;12.40;99.90;;;;;;5008772;28;20036;-71
2023/01/01 11:08:53;;;;;;;24.58;3.08;;;12.40;99.90;;;;;;4996132;28;20037;-71
2023/01/01 11:11:31;;;;;;;26.63;3.75;;;12.40;99.90;;;;;;5002950;28;20029;-71
2023/01/01 11:14:03;;;;;;;29.23;3.58;;;12.40;99.90;;;;;;5006937;28;20034;-71
2023/01/01 11:16:29;;;;;;;25.50;3.20;;;12.30;99.90;;;;;;5004915;28;20026;-71
2023/01/01 11:19:35;;;;;;;24.23;3.13;;;12.30;99.90;;;;;;4998209;28;20038;-70
2023/01/01 11:22:01;;;;;;;26.10;3.30;;;12.30;99.90;;;;;;4979792;28;20045;-71
2023/01/01 11:24:29;;;;;;;24.40;3.25;;;12.30;99.90;;;;;;4996003;28;20636;-71
2023/01/01 11:27:23;;;;;;;25.73;3.05;;;12.30;99.90;;;;;;4994098;28;20366;-71
2023/01/01 11:29:53;;;;;;;24.63;3.88;;;12.30;99.90;;;;;;4993068;28;20086;-69
2023/01/01 11:32:26;;;;;;;24.15;2.78;;;12.40;99.90;;;;;;4993504;28;20034;-70
2023/01/01 11:35:06;;;;;;;23.27;3.00;;;12.40;99.90;;;;;;4993728;28;20104;-70
2023/01/01 11:37:39;;;;;;;28.08;2.90;;;12.40;99.90;;;;;;5011457;28;20057;-71
2023/01/01 11:40:14;;;;;;;23.05;3.30;;;12.40;99.90;;;;;;4999062;28;20040;-70
2023/01/01 11:42:55;;;;;;;29.25;3.85;;;12.40;99.90;;;;;;4997117;28;20113;-70
2023/01/01 11:45:29;;;;;;;28.52;2.95;;;12.30;99.90;;;;;;5010932;28;20116;-70
2023/01/01 11:47:58;;;;;;;32.28;4.28;;;12.30;99.90;;;;;;5006747;28;20088;-70
2023/01/01 11:50:37;;;;;;;20.67;3.03;;;12.30;99.90;;;;;;5006042;28;20103;-70
2023/01/01 11:53:23;;;;;;;24.98;2.92;;;12.30;99.90;;;;;;5000173;28;20068;-71
2023/01/01 11:55:49;;;;;;;31.33;3.95;;;12.30;99.90;;;;;;4989667;28;20128;-71
2023/01/01 11:58:46;;;;;;;35.33;3.33;;;12.20;99.90;;;;;;4995552;28;20096;-73
2023/01/01 12:01:45;;;;;;;26.88;2.92;;;12.20;99.90;;;;;;4999927;23;20444;-71
2023/01/01 12:04:36;;;;;;;31.02;3.03;;;12.20;99.90;;;;;;5037242;28;20120;-71
2023/01/01 12:07:08;;;;;;;28.25;3.42;;;12.30;99.90;;;;;;5026648;28;20120;-71
2023/01/01 12:09:42;;;;;;;26.23;3.55;;;12.40;99.90;;;;;;5031213;28;20096;-71
2023/01/01 12:12:29;;;;;;;27.55;3.00;;;12.40;99.90;;;;;;5033502;28;20205;-70
2023/01/01 12:14:58;;;;;;;31.48;4.22;;;12.40;99.90;;;;;;5035832;28;20068;-70
2023/01/01 12:17:32;;;;;;;28.02;3.22;;;12.40;99.90;;;;;;5036882;28;20033;-70
2023/01/01 12:20:15;;;;;;;32.20;3.35;;;12.50;99.90;;;;;;5028453;28;20045;-71
2023/01/01 12:22:40;;;;;;;25.33;2.85;;;12.50;99.90;;;;;;5031440;28;20426;-70
2023/01/01 12:25:12;;;;;;;23.23;3.20;;;12.50;99.90;;;;;;5037525;28;20092;-71
2023/01/01 12:27:58;;;;;;;;;;;12.50;99.90;;;;;;5037279;28;20051;-71
2023/01/01 12:30:51;;;;;;;23.35;2.90;;;12.50;99.90;;;;;;5011085;28;20277;-70
2023/01/01 12:33:39;;;;;;;24.73;3.85;;;12.50;99.90;;;;;;5013950;28;20036;-71
2023/01/01 12:36:10;;;;;;;28.13;3.90;;;12.50;99.90;;;;;;5033675;28;20545;-70
2023/01/01 12:39:23;;;;;;;21.98;3.03;;;12.50;99.90;;;;;;5036483;28;20101;-71
2023/01/01 12:41:49;;;;;;;25.17;3.22;;;12.50;99.90;;;;;;4964422;28;20098;-71
2023/01/01 12:44:33;;;;;;;29.48;3.25;;;12.60;99.90;;;;;;5011694;28;21209;-71
2023/01/01 12:47:08;;;;;;;30.95;4.32;;;12.60;99.90;;;;;;5030771;28;20051;-70
2023/01/01 12:49:39;;;;;;;24.15;3.13;;;12.60;99.90;;;;;;5028155;28;20577;-71
2023/01/01 12:52:14;;;;;;;;;;;12.50;99.90;;;;;;5029629;28;20032;-70
2023/01/01 12:55:17;;;;;;;26.33;3.10;;;12.50;99.90;;;;;;4662567;28;10001466;-70
2023/01/01 12:57:55;;;;;;;28.58;3.97;;;12.50;99.90;;;;;;5035122;28;20040;-71
2023/01/01 13:00:21;;;;;;;27.27;3.70;;;12.50;99.90;;;;;;5012993;28;20092;-70
2023/01/01 13:02:59;;;;;;;22.42;2.72;;;12.60;99.90;;;;;;5033229;28;20072;-71
2023/01/01 13:05:42;;;;;;;35.05;3.78;;;12.60;99.90;;;;;;5031450;28;20108;-71
2023/01/01 13:08:08;;;;;;;32.33;3.90;;;12.60;99.90;;;;;;5029498;28;20656;-71